createdAt,value
2023-09-27T00:01:23.577Z,1022.19
2023-09-27T00:11:28.979Z,1022.12
2023-09-27T00:21:34.154Z,1022.08
2023-09-27T00:31:39.542Z,1022.13
2023-09-27T00:41:44.708Z,1022.14
2023-09-27T00:51:50.288Z,1022.18
2023-09-27T01:01:55.695Z,1022.16
2023-09-27T01:12:01.212Z,1022.10
2023-09-27T01:22:06.674Z,1022.02
2023-09-27T01:32:12.348Z,1022.11
2023-09-27T01:42:17.574Z,1022.23
2023-09-27T01:52:22.881Z,1022.22
2023-09-27T02:02:28.272Z,1022.16
2023-09-27T02:12:33.736Z,1022.09
2023-09-27T02:22:40.704Z,1022.08
2023-09-27T02:32:46.022Z,1022.03
2023-09-27T02:42:51.426Z,1022.14
2023-09-27T02:52:56.771Z,1022.31
2023-09-27T03:03:02.238Z,1022.26
2023-09-27T03:13:07.525Z,1022.42
2023-09-27T03:23:13.029Z,1022.26
2023-09-27T03:33:18.520Z,1022.19
2023-09-27T03:43:24.397Z,1022.17
2023-09-27T03:53:29.792Z,1022.09
2023-09-27T04:05:05.576Z,1022.16
2023-09-27T04:15:10.150Z,1022.12
2023-09-27T04:25:15.394Z,1022.18
2023-09-27T04:35:20.833Z,1022.41
2023-09-27T04:45:26.577Z,1022.52
2023-09-27T04:55:31.872Z,1022.72
2023-09-27T05:05:37.342Z,1022.74
2023-09-27T05:15:42.931Z,1022.86
2023-09-27T05:25:48.239Z,1023.06
2023-09-27T05:35:53.510Z,1023.12
2023-09-27T05:45:58.847Z,1023.23
2023-09-27T05:56:04.566Z,1023.37
2023-09-27T06:06:10.051Z,1023.51
2023-09-27T06:16:15.436Z,1023.57
2023-09-27T06:26:21.221Z,1023.59
2023-09-27T06:36:26.702Z,1023.60
2023-09-27T06:46:42.949Z,1023.72
2023-09-27T06:56:42.091Z,1023.57
2023-09-27T07:06:47.666Z,1023.66
2023-09-27T07:17:01.010Z,1023.70
2023-09-27T07:27:03.457Z,1023.57
2023-09-27T07:37:09.499Z,1023.59
2023-09-27T07:47:14.921Z,1023.50
2023-09-27T07:57:20.182Z,1023.40
2023-09-27T08:07:25.795Z,1023.45
2023-09-27T08:17:31.178Z,1023.44
2023-09-27T08:27:37.508Z,1023.44
2023-09-27T08:39:02.211Z,1023.42
2023-09-27T08:49:06.344Z,1023.51
2023-09-27T09:01:50.318Z,1023.48
2023-09-27T09:11:55.234Z,1023.37
2023-09-27T09:22:00.539Z,1023.35
2023-09-27T09:32:06.004Z,1023.33
2023-09-27T09:42:11.958Z,1023.26
2023-09-27T09:52:17.167Z,1023.16
2023-09-27T10:02:22.492Z,1023.04
2023-09-27T10:12:28.085Z,1023.00
2023-09-27T10:22:33.691Z,1022.88
2023-09-27T10:32:39.066Z,1022.70
2023-09-27T10:42:44.496Z,1022.60
2023-09-27T10:52:49.785Z,1022.58
2023-09-27T11:02:55.240Z,1022.50
2023-09-27T11:13:00.577Z,1022.37
2023-09-27T11:23:05.792Z,1022.26
2023-09-27T11:33:11.133Z,1022.31
2023-09-27T11:43:17.013Z,1022.30
2023-09-27T11:53:22.455Z,1022.25
2023-09-27T12:03:28.517Z,1022.14
2023-09-27T12:13:34.877Z,1022.02
2023-09-27T12:23:40.677Z,1021.87
2023-09-27T12:33:46.575Z,1021.81
2023-09-27T12:43:51.969Z,1021.68
2023-09-27T12:53:57.100Z,1021.65
2023-09-27T13:04:02.600Z,1021.59
2023-09-27T13:14:08.410Z,1021.49
2023-09-27T13:24:13.549Z,1021.35
2023-09-27T13:34:19.128Z,1021.21
2023-09-27T13:44:24.681Z,1021.16
2023-09-27T13:54:30.339Z,1021.09
2023-09-27T14:04:35.657Z,1021.00
2023-09-27T14:14:41.016Z,1020.91
2023-09-27T14:24:46.749Z,1020.86
2023-09-27T14:44:59.902Z,1020.67
2023-09-27T14:55:05.091Z,1020.55
2023-09-27T15:05:10.423Z,1020.52
2023-09-27T15:15:16.237Z,1020.54
2023-09-27T15:25:21.986Z,1020.56
2023-09-27T15:35:27.291Z,1020.57
2023-09-27T15:45:32.829Z,1020.54
2023-09-27T15:55:38.291Z,1020.54
2023-09-27T16:05:43.693Z,1020.53
2023-09-27T16:15:49.038Z,1020.45
2023-09-27T16:25:54.394Z,1020.39
2023-09-27T16:35:59.487Z,1020.41
2023-09-27T16:46:04.680Z,1020.38
2023-09-27T16:56:10.285Z,1020.37
2023-09-27T17:06:15.407Z,1020.41
2023-09-27T17:16:20.735Z,1020.37
2023-09-27T17:26:26.209Z,1020.28
2023-09-27T17:36:31.802Z,1020.22
2023-09-27T17:46:38.791Z,1020.21
2023-09-27T17:56:44.735Z,1020.18
2023-09-27T18:06:50.520Z,1020.11
2023-09-27T18:16:56.018Z,1020.05
2023-09-27T18:27:01.643Z,1020.03
2023-09-27T18:37:06.921Z,1020.01
2023-09-27T18:47:12.351Z,1019.91
2023-09-27T18:57:17.791Z,1019.78
2023-09-27T19:07:23.984Z,1019.74
2023-09-27T19:17:29.519Z,1019.75
2023-09-27T19:27:35.077Z,1019.84
2023-09-27T19:37:40.756Z,1019.84
2023-09-27T19:47:46.575Z,1019.82
2023-09-27T19:57:51.946Z,1019.70
2023-09-27T20:07:57.663Z,1019.64
2023-09-27T20:18:03.038Z,1019.46
2023-09-27T20:28:08.365Z,1019.47
2023-09-27T20:39:33.629Z,1019.36
2023-09-27T20:50:58.005Z,1019.26
2023-09-27T21:01:02.523Z,1019.19
2023-09-27T21:11:07.408Z,1019.12
2023-09-27T21:21:13.250Z,1019.12
2023-09-27T21:31:18.143Z,1019.08
2023-09-27T21:41:24.259Z,1019.13
2023-09-27T21:51:29.473Z,1019.06
2023-09-27T22:01:35.141Z,1018.98
2023-09-27T22:11:40.893Z,1018.96
2023-09-27T22:21:45.966Z,1018.92
2023-09-27T22:31:51.902Z,1018.78
2023-09-27T22:41:56.746Z,1018.63
2023-09-27T22:52:02.141Z,1018.56
2023-09-27T23:02:07.098Z,1018.43
2023-09-27T23:12:12.578Z,1018.35
2023-09-27T23:22:17.468Z,1018.32
2023-09-27T23:32:22.617Z,1018.27
2023-09-27T23:42:28.199Z,1018.23
2023-09-27T23:52:33.681Z,1018.33
